気象予報士の航空気象 ちりゆく桜

*All archives   *Admin

スポンサーサイト

上記の広告は1ヶ月以上更新のないブログに表示されています。
新しい記事を書く事で広告が消せます。
--:--  |  スポンサー広告  |  EDIT  |  Top↑

2010.04.10 (Sat)

ちりゆく桜

RJTT 100530Z 16008KT 9999 FEW020 SCT070 19/12 Q1016 RMK 1CU020 3AC070 A3002


RJAA 100530Z 15009KT 9999 FEW018 BKN050 18/12 Q1017 NOSIG RMK 1CU018 7SC050 A3003


昼間、お散歩してましたら、汗をかきました。


20度前後まで、気温が上昇していたようですね。


南風に吹かれ、ちりゆく桜をお花見する方々を見かけました。


RJFT 100500Z 23008KT 9999 FEW035 BKN080 26/11 Q1012


熊本では25度を超えてますよ!


びっくり。


 
ブログランキングに参加しています。
にほんブログ村 環境ブログ 天気・気象学へ
にほんブログ村
応援クリックをおねがします。


以下、アフィリエイトサイトです。




スポンサーサイト
23:18  |  時事  |  TB(0)  |  CM(0)  |  EDIT  |  Top↑

コメントを投稿する


 管理者だけに表示  (非公開コメント投稿可能)

▲PageTop

この記事のトラックバックURL

→http://weathereucalyptus.blog115.fc2.com/tb.php/450-2fc64682
この記事にトラックバックする(FC2ブログユーザー)

この記事へのトラックバック

▲PageTop

 | BLOGTOP | 
上記広告は1ヶ月以上更新のないブログに表示されています。新しい記事を書くことで広告を消せます。